sensor_id;sensor_type;location;lat;lon;timestamp;P1;P2;P0
46302;PMS7003;32029;51.358;5.628;2022-11-15T00:01:06;15.00;13.67;11.00
46302;PMS7003;32029;51.358;5.628;2022-11-15T00:03:37;17.00;14.00;9.33
46302;PMS7003;32029;51.358;5.628;2022-11-15T00:06:08;14.33;12.00;8.50
46302;PMS7003;32029;51.358;5.628;2022-11-15T00:08:38;16.17;13.00;9.00
46302;PMS7003;32029;51.358;5.628;2022-11-15T00:11:08;16.83;14.50;9.17
46302;PMS7003;32029;51.358;5.628;2022-11-15T00:13:36;14.33;13.67;9.67
46302;PMS7003;32029;51.358;5.628;2022-11-15T00:16:03;12.33;10.00;8.33
46302;PMS7003;32029;51.358;5.628;2022-11-15T00:18:32;15.83;13.83;10.33
46302;PMS7003;32029;51.358;5.628;2022-11-15T00:21:03;15.67;14.67;10.67
46302;PMS7003;32029;51.358;5.628;2022-11-15T00:23:33;7.33;4.00;3.67
46302;PMS7003;32029;51.358;5.628;2022-11-15T00:26:00;17.00;14.00;12.67
46302;PMS7003;32029;51.358;5.628;2022-11-15T00:28:28;11.60;9.80;8.40
46302;PMS7003;32029;51.358;5.628;2022-11-15T00:31:02;10.33;10.00;8.67
46302;PMS7003;32029;51.358;5.628;2022-11-15T00:33:31;15.00;14.00;10.67
46302;PMS7003;32029;51.358;5.628;2022-11-15T00:36:05;16.67;14.67;9.67
46302;PMS7003;32029;51.358;5.628;2022-11-15T00:38:38;21.67;15.00;11.00
46302;PMS7003;32029;51.358;5.628;2022-11-15T00:41:07;12.40;9.60;7.80
46302;PMS7003;32029;51.358;5.628;2022-11-15T00:43:36;14.20;11.00;7.80
46302;PMS7003;32029;51.358;5.628;2022-11-15T00:46:05;13.50;12.50;9.50
46302;PMS7003;32029;51.358;5.628;2022-11-15T00:48:32;14.00;10.00;9.00
46302;PMS7003;32029;51.358;5.628;2022-11-15T00:51:00;13.80;10.40;9.00
46302;PMS7003;32029;51.358;5.628;2022-11-15T00:53:27;13.33;11.33;8.67
46302;PMS7003;32029;51.358;5.628;2022-11-15T00:55:54;19.33;14.67;10.67
46302;PMS7003;32029;51.358;5.628;2022-11-15T00:58:20;12.67;12.67;9.00
46302;PMS7003;32029;51.358;5.628;2022-11-15T01:00:47;15.00;12.33;9.33
46302;PMS7003;32029;51.358;5.628;2022-11-15T01:03:14;11.00;10.00;7.67
46302;PMS7003;32029;51.358;5.628;2022-11-15T01:05:41;21.67;16.00;11.00
46302;PMS7003;32029;51.358;5.628;2022-11-15T01:08:14;9.33;8.33;7.00
46302;PMS7003;32029;51.358;5.628;2022-11-15T01:10:42;21.33;15.00;10.33
46302;PMS7003;32029;51.358;5.628;2022-11-15T01:13:10;13.00;11.20;8.00
46302;PMS7003;32029;51.358;5.628;2022-11-15T01:15:40;19.33;14.00;11.00
46302;PMS7003;32029;51.358;5.628;2022-11-15T01:18:09;11.83;11.50;10.00
46302;PMS7003;32029;51.358;5.628;2022-11-15T01:20:40;10.40;8.00;7.20
46302;PMS7003;32029;51.358;5.628;2022-11-15T01:23:09;11.00;10.40;8.40
46302;PMS7003;32029;51.358;5.628;2022-11-15T01:25:37;12.60;10.40;9.00
46302;PMS7003;32029;51.358;5.628;2022-11-15T01:28:04;14.00;10.33;7.67
46302;PMS7003;32029;51.358;5.628;2022-11-15T01:30:31;9.67;9.67;8.00
46302;PMS7003;32029;51.358;5.628;2022-11-15T01:32:59;10.60;10.60;8.40
46302;PMS7003;32029;51.358;5.628;2022-11-15T01:35:27;13.50;12.17;10.00
46302;PMS7003;32029;51.358;5.628;2022-11-15T01:37:54;14.33;14.00;10.00
46302;PMS7003;32029;51.358;5.628;2022-11-15T01:40:21;10.67;10.00;8.00
46302;PMS7003;32029;51.358;5.628;2022-11-15T01:42:48;9.67;8.67;7.00
46302;PMS7003;32029;51.358;5.628;2022-11-15T01:45:17;13.20;10.80;9.00
46302;PMS7003;32029;51.358;5.628;2022-11-15T01:47:47;18.17;14.17;10.17
46302;PMS7003;32029;51.358;5.628;2022-11-15T01:50:19;11.60;10.60;8.60
46302;PMS7003;32029;51.358;5.628;2022-11-15T01:52:51;12.00;11.00;8.00
46302;PMS7003;32029;51.358;5.628;2022-11-15T01:55:20;9.80;9.20;4.80
46302;PMS7003;32029;51.358;5.628;2022-11-15T01:57:52;13.67;10.67;8.67
46302;PMS7003;32029;51.358;5.628;2022-11-15T02:00:23;11.67;11.00;9.33
46302;PMS7003;32029;51.358;5.628;2022-11-15T02:02:50;6.67;4.67;4.00
46302;PMS7003;32029;51.358;5.628;2022-11-15T02:05:17;12.00;12.00;9.00
46302;PMS7003;32029;51.358;5.628;2022-11-15T02:07:46;12.00;12.00;9.20
46302;PMS7003;32029;51.358;5.628;2022-11-15T02:10:20;10.40;9.60;7.00
46302;PMS7003;32029;51.358;5.628;2022-11-15T02:12:50;11.40;9.00;7.60
46302;PMS7003;32029;51.358;5.628;2022-11-15T02:15:20;14.50;11.83;8.50
46302;PMS7003;32029;51.358;5.628;2022-11-15T02:20:44;15.00;11.20;9.00
46302;PMS7003;32029;51.358;5.628;2022-11-15T02:23:22;8.00;7.40;5.00
46302;PMS7003;32029;51.358;5.628;2022-11-15T02:28:53;16.67;10.83;9.00
46302;PMS7003;32029;51.358;5.628;2022-11-15T02:31:33;10.00;9.33;8.00
46302;PMS7003;32029;51.358;5.628;2022-11-15T02:37:15;12.80;11.00;9.00
46302;PMS7003;32029;51.358;5.628;2022-11-15T02:42:25;10.40;8.00;5.80
46302;PMS7003;32029;51.358;5.628;2022-11-15T02:45:21;10.00;9.00;6.00
46302;PMS7003;32029;51.358;5.628;2022-11-15T02:47:55;13.00;12.17;10.17
46302;PMS7003;32029;51.358;5.628;2022-11-15T02:50:28;17.50;11.67;9.00
46302;PMS7003;32029;51.358;5.628;2022-11-15T02:52:56;10.33;10.33;8.00
46302;PMS7003;32029;51.358;5.628;2022-11-15T02:55:28;14.60;11.40;8.80
46302;PMS7003;32029;51.358;5.628;2022-11-15T02:58:26;11.00;11.00;9.00
46302;PMS7003;32029;51.358;5.628;2022-11-15T03:01:28;8.80;8.80;8.00
46302;PMS7003;32029;51.358;5.628;2022-11-15T03:07:28;11.00;10.40;9.00
46302;PMS7003;32029;51.358;5.628;2022-11-15T03:10:05;11.00;9.67;6.00
46302;PMS7003;32029;51.358;5.628;2022-11-15T03:12:37;11.67;11.67;9.67
46302;PMS7003;32029;51.358;5.628;2022-11-15T03:15:23;11.00;10.33;7.67
46302;PMS7003;32029;51.358;5.628;2022-11-15T03:17:59;16.33;13.33;9.83
46302;PMS7003;32029;51.358;5.628;2022-11-15T03:20:31;14.00;11.33;9.00
46302;PMS7003;32029;51.358;5.628;2022-11-15T03:23:03;17.00;11.33;10.33
46302;PMS7003;32029;51.358;5.628;2022-11-15T03:25:34;11.60;10.80;8.40
46302;PMS7003;32029;51.358;5.628;2022-11-15T03:28:08;10.67;9.67;7.67
46302;PMS7003;32029;51.358;5.628;2022-11-15T03:30:39;14.00;11.67;9.00
46302;PMS7003;32029;51.358;5.628;2022-11-15T03:33:09;14.67;13.33;9.33
46302;PMS7003;32029;51.358;5.628;2022-11-15T03:35:39;12.20;10.60;9.20
46302;PMS7003;32029;51.358;5.628;2022-11-15T03:38:22;16.00;13.67;9.33
46302;PMS7003;32029;51.358;5.628;2022-11-15T03:43:40;10.00;9.67;6.33
46302;PMS7003;32029;51.358;5.628;2022-11-15T03:46:23;14.83;10.50;7.83
46302;PMS7003;32029;51.358;5.628;2022-11-15T03:48:59;12.60;9.80;7.20
46302;PMS7003;32029;51.358;5.628;2022-11-15T03:51:38;15.00;11.00;9.67
46302;PMS7003;32029;51.358;5.628;2022-11-15T03:54:05;12.67;12.00;9.33
46302;PMS7003;32029;51.358;5.628;2022-11-15T03:56:33;10.40;10.40;9.60
46302;PMS7003;32029;51.358;5.628;2022-11-15T03:59:00;11.00;9.67;6.33
46302;PMS7003;32029;51.358;5.628;2022-11-15T04:01:27;12.60;10.60;7.60
46302;PMS7003;32029;51.358;5.628;2022-11-15T04:03:56;12.20;10.20;7.00
46302;PMS7003;32029;51.358;5.628;2022-11-15T04:06:23;9.00;8.33;6.00
46302;PMS7003;32029;51.358;5.628;2022-11-15T04:08:50;18.33;14.33;10.00
46302;PMS7003;32029;51.358;5.628;2022-11-15T04:11:17;12.00;11.67;8.33
46302;PMS7003;32029;51.358;5.628;2022-11-15T04:13:44;10.33;9.33;7.00
46302;PMS7003;32029;51.358;5.628;2022-11-15T04:16:10;9.33;9.00;7.00
46302;PMS7003;32029;51.358;5.628;2022-11-15T04:18:38;15.00;14.00;11.00
46302;PMS7003;32029;51.358;5.628;2022-11-15T04:21:05;20.00;10.67;9.00
46302;PMS7003;32029;51.358;5.628;2022-11-15T04:23:51;16.20;9.00;5.80
46302;PMS7003;32029;51.358;5.628;2022-11-15T04:26:35;18.50;13.00;9.50
46302;PMS7003;32029;51.358;5.628;2022-11-15T04:29:03;11.20;7.60;6.00
46302;PMS7003;32029;51.358;5.628;2022-11-15T04:31:49;10.00;9.00;7.00
46302;PMS7003;32029;51.358;5.628;2022-11-15T04:34:17;9.20;9.20;6.00
46302;PMS7003;32029;51.358;5.628;2022-11-15T04:36:45;10.20;9.40;6.80
46302;PMS7003;32029;51.358;5.628;2022-11-15T04:39:31;8.40;7.80;6.20
46302;PMS7003;32029;51.358;5.628;2022-11-15T04:41:58;10.67;10.67;9.00
46302;PMS7003;32029;51.358;5.628;2022-11-15T04:44:26;11.80;11.20;8.60
46302;PMS7003;32029;51.358;5.628;2022-11-15T04:46:53;12.33;9.33;6.33
46302;PMS7003;32029;51.358;5.628;2022-11-15T04:49:20;10.00;9.67;7.00
46302;PMS7003;32029;51.358;5.628;2022-11-15T04:51:47;10.00;9.33;6.00
46302;PMS7003;32029;51.358;5.628;2022-11-15T04:54:14;10.60;8.60;7.00
46302;PMS7003;32029;51.358;5.628;2022-11-15T04:56:42;12.20;10.00;8.00
46302;PMS7003;32029;51.358;5.628;2022-11-15T04:59:10;8.80;8.60;7.20
46302;PMS7003;32029;51.358;5.628;2022-11-15T05:01:38;10.40;9.00;5.80
46302;PMS7003;32029;51.358;5.628;2022-11-15T05:04:06;9.60;9.60;6.80
46302;PMS7003;32029;51.358;5.628;2022-11-15T05:06:46;7.33;6.33;5.00
46302;PMS7003;32029;51.358;5.628;2022-11-15T05:09:18;7.00;7.00;5.20
46302;PMS7003;32029;51.358;5.628;2022-11-15T05:11:48;10.20;8.60;6.00
46302;PMS7003;32029;51.358;5.628;2022-11-15T05:14:17;10.40;8.60;6.00
46302;PMS7003;32029;51.358;5.628;2022-11-15T05:16:45;12.00;6.67;5.67
46302;PMS7003;32029;51.358;5.628;2022-11-15T05:19:11;10.33;7.00;5.67
46302;PMS7003;32029;51.358;5.628;2022-11-15T05:21:38;9.67;8.33;5.33
46302;PMS7003;32029;51.358;5.628;2022-11-15T05:24:06;10.80;8.80;6.00
46302;PMS7003;32029;51.358;5.628;2022-11-15T05:26:36;13.40;10.00;6.40
46302;PMS7003;32029;51.358;5.628;2022-11-15T05:29:03;7.00;6.00;5.00
46302;PMS7003;32029;51.358;5.628;2022-11-15T05:31:31;9.80;7.80;5.60
46302;PMS7003;32029;51.358;5.628;2022-11-15T05:34:03;6.67;5.67;4.00
46302;PMS7003;32029;51.358;5.628;2022-11-15T05:36:37;11.00;7.60;6.00
46302;PMS7003;32029;51.358;5.628;2022-11-15T05:39:08;11.00;8.80;7.00
46302;PMS7003;32029;51.358;5.628;2022-11-15T05:41:46;10.00;7.00;6.67
46302;PMS7003;32029;51.358;5.628;2022-11-15T05:44:21;12.20;9.40;6.00
46302;PMS7003;32029;51.358;5.628;2022-11-15T05:46:50;8.40;7.80;5.80
46302;PMS7003;32029;51.358;5.628;2022-11-15T05:49:22;10.00;9.40;6.40
46302;PMS7003;32029;51.358;5.628;2022-11-15T05:51:54;7.80;5.60;5.00
46302;PMS7003;32029;51.358;5.628;2022-11-15T05:54:21;13.33;9.67;8.00
46302;PMS7003;32029;51.358;5.628;2022-11-15T05:56:51;7.60;7.60;5.40
46302;PMS7003;32029;51.358;5.628;2022-11-15T05:59:18;7.00;6.67;5.33
46302;PMS7003;32029;51.358;5.628;2022-11-15T06:01:45;11.00;9.00;6.00
46302;PMS7003;32029;51.358;5.628;2022-11-15T06:04:12;11.67;9.33;6.67
46302;PMS7003;32029;51.358;5.628;2022-11-15T06:06:39;11.00;7.00;6.00
46302;PMS7003;32029;51.358;5.628;2022-11-15T06:09:06;7.60;7.00;5.60
46302;PMS7003;32029;51.358;5.628;2022-11-15T06:11:33;8.67;6.00;4.67
46302;PMS7003;32029;51.358;5.628;2022-11-15T06:14:01;5.20;4.80;3.00
46302;PMS7003;32029;51.358;5.628;2022-11-15T06:16:28;4.00;4.00;3.00
46302;PMS7003;32029;51.358;5.628;2022-11-15T06:18:54;4.00;2.33;2.00
46302;PMS7003;32029;51.358;5.628;2022-11-15T06:21:21;3.33;2.33;2.00
46302;PMS7003;32029;51.358;5.628;2022-11-15T06:23:48;5.00;3.67;3.00
46302;PMS7003;32029;51.358;5.628;2022-11-15T06:26:15;4.33;3.33;3.00
46302;PMS7003;32029;51.358;5.628;2022-11-15T06:28:41;3.33;3.33;2.33
46302;PMS7003;32029;51.358;5.628;2022-11-15T06:31:10;3.33;3.33;2.33
46302;PMS7003;32029;51.358;5.628;2022-11-15T06:33:38;2.33;2.33;2.00
46302;PMS7003;32029;51.358;5.628;2022-11-15T06:36:06;3.00;3.00;2.00
46302;PMS7003;32029;51.358;5.628;2022-11-15T06:38:35;3.00;3.00;2.67
46302;PMS7003;32029;51.358;5.628;2022-11-15T06:41:03;3.67;3.67;3.00
46302;PMS7003;32029;51.358;5.628;2022-11-15T06:43:31;3.33;3.33;3.00
46302;PMS7003;32029;51.358;5.628;2022-11-15T06:45:59;5.00;4.00;3.00
46302;PMS7003;32029;51.358;5.628;2022-11-15T06:48:26;3.00;3.00;3.00
46302;PMS7003;32029;51.358;5.628;2022-11-15T06:50:53;5.00;4.00;3.00
46302;PMS7003;32029;51.358;5.628;2022-11-15T06:53:24;4.33;3.00;3.00
46302;PMS7003;32029;51.358;5.628;2022-11-15T06:55:52;6.00;6.00;4.33
46302;PMS7003;32029;51.358;5.628;2022-11-15T06:58:20;4.33;4.33;3.67
46302;PMS7003;32029;51.358;5.628;2022-11-15T07:00:47;6.00;5.67;4.33
46302;PMS7003;32029;51.358;5.628;2022-11-15T07:03:14;5.00;3.33;3.00
46302;PMS7003;32029;51.358;5.628;2022-11-15T07:05:40;7.67;6.00;4.33
46302;PMS7003;32029;51.358;5.628;2022-11-15T07:08:07;6.00;4.33;4.00
46302;PMS7003;32029;51.358;5.628;2022-11-15T07:10:34;4.00;4.00;3.00
46302;PMS7003;32029;51.358;5.628;2022-11-15T07:13:01;5.33;4.67;3.00
46302;PMS7003;32029;51.358;5.628;2022-11-15T07:15:27;5.00;4.00;2.00
46302;PMS7003;32029;51.358;5.628;2022-11-15T07:17:54;5.00;4.00;3.00
46302;PMS7003;32029;51.358;5.628;2022-11-15T07:20:21;4.00;4.00;3.00
46302;PMS7003;32029;51.358;5.628;2022-11-15T07:22:47;6.00;6.00;4.00
46302;PMS7003;32029;51.358;5.628;2022-11-15T07:25:14;4.33;3.00;2.00
46302;PMS7003;32029;51.358;5.628;2022-11-15T07:27:41;5.33;4.00;3.00
46302;PMS7003;32029;51.358;5.628;2022-11-15T07:30:09;8.60;5.60;4.80
46302;PMS7003;32029;51.358;5.628;2022-11-15T07:32:36;4.33;4.00;3.00
46302;PMS7003;32029;51.358;5.628;2022-11-15T07:35:04;3.00;3.00;2.60
46302;PMS7003;32029;51.358;5.628;2022-11-15T07:37:31;5.00;4.00;3.00
46302;PMS7003;32029;51.358;5.628;2022-11-15T07:39:58;4.60;4.00;3.00
46302;PMS7003;32029;51.358;5.628;2022-11-15T07:42:25;5.33;5.33;4.00
46302;PMS7003;32029;51.358;5.628;2022-11-15T07:45:10;7.67;6.00;4.00
46302;PMS7003;32029;51.358;5.628;2022-11-15T07:47:37;4.00;3.00;3.00
46302;PMS7003;32029;51.358;5.628;2022-11-15T07:50:04;4.00;2.00;2.00
46302;PMS7003;32029;51.358;5.628;2022-11-15T07:52:31;5.67;4.00;2.00
46302;PMS7003;32029;51.358;5.628;2022-11-15T07:54:57;4.67;4.67;4.00
46302;PMS7003;32029;51.358;5.628;2022-11-15T07:57:24;6.33;4.00;3.00
46302;PMS7003;32029;51.358;5.628;2022-11-15T07:59:51;5.00;4.00;3.00
46302;PMS7003;32029;51.358;5.628;2022-11-15T08:02:17;3.33;3.33;3.00
46302;PMS7003;32029;51.358;5.628;2022-11-15T08:04:44;4.00;4.00;3.00
46302;PMS7003;32029;51.358;5.628;2022-11-15T08:07:11;3.00;2.00;2.00
46302;PMS7003;32029;51.358;5.628;2022-11-15T08:09:37;4.00;3.00;2.00
46302;PMS7003;32029;51.358;5.628;2022-11-15T08:12:04;3.00;2.67;2.00
46302;PMS7003;32029;51.358;5.628;2022-11-15T08:14:32;2.40;2.00;2.00
46302;PMS7003;32029;51.358;5.628;2022-11-15T08:16:59;1.00;1.00;1.00
46302;PMS7003;32029;51.358;5.628;2022-11-15T08:19:26;4.00;3.00;2.00
46302;PMS7003;32029;51.358;5.628;2022-11-15T08:21:52;3.00;3.00;2.00
46302;PMS7003;32029;51.358;5.628;2022-11-15T08:24:19;6.00;4.00;3.00
46302;PMS7003;32029;51.358;5.628;2022-11-15T08:26:46;2.67;1.67;1.33
46302;PMS7003;32029;51.358;5.628;2022-11-15T08:29:13;3.00;3.00;2.00
46302;PMS7003;32029;51.358;5.628;2022-11-15T08:31:40;4.00;4.00;4.00
46302;PMS7003;32029;51.358;5.628;2022-11-15T08:34:06;2.33;2.33;2.00
46302;PMS7003;32029;51.358;5.628;2022-11-15T08:36:33;3.33;3.33;3.00
46302;PMS7003;32029;51.358;5.628;2022-11-15T08:39:00;2.67;2.67;2.33
46302;PMS7003;32029;51.358;5.628;2022-11-15T08:44:02;3.00;3.00;2.00
46302;PMS7003;32029;51.358;5.628;2022-11-15T08:46:28;2.33;2.33;2.00
46302;PMS7003;32029;51.358;5.628;2022-11-15T08:48:55;2.67;2.67;2.00
46302;PMS7003;32029;51.358;5.628;2022-11-15T08:51:22;5.67;3.00;2.00
46302;PMS7003;32029;51.358;5.628;2022-11-15T08:53:48;2.00;2.00;2.00
46302;PMS7003;32029;51.358;5.628;2022-11-15T08:56:15;6.33;4.00;3.33
46302;PMS7003;32029;51.358;5.628;2022-11-15T08:58:42;1.00;1.00;1.00
46302;PMS7003;32029;51.358;5.628;2022-11-15T09:01:16;3.00;2.00;1.00
46302;PMS7003;32029;51.358;5.628;2022-11-15T09:03:44;3.00;2.00;2.00
46302;PMS7003;32029;51.358;5.628;2022-11-15T09:06:11;1.00;1.00;1.00
46302;PMS7003;32029;51.358;5.628;2022-11-15T09:08:38;4.00;3.33;3.00
46302;PMS7003;32029;51.358;5.628;2022-11-15T09:11:06;4.33;1.00;1.00
46302;PMS7003;32029;51.358;5.628;2022-11-15T09:13:34;3.33;2.00;1.67
46302;PMS7003;32029;51.358;5.628;2022-11-15T09:16:03;2.00;2.00;2.00
46302;PMS7003;32029;51.358;5.628;2022-11-15T09:18:30;1.00;1.00;1.00
46302;PMS7003;32029;51.358;5.628;2022-11-15T09:20:57;2.00;1.00;1.00
46302;PMS7003;32029;51.358;5.628;2022-11-15T09:23:25;2.00;2.00;2.00
46302;PMS7003;32029;51.358;5.628;2022-11-15T09:25:57;4.33;1.00;1.00
46302;PMS7003;32029;51.358;5.628;2022-11-15T09:28:28;1.00;1.00;1.00
46302;PMS7003;32029;51.358;5.628;2022-11-15T09:30:56;1.67;1.67;1.33
46302;PMS7003;32029;51.358;5.628;2022-11-15T09:33:25;1.33;1.00;0.67
46302;PMS7003;32029;51.358;5.628;2022-11-15T09:35:52;1.00;1.00;0.33
46302;PMS7003;32029;51.358;5.628;2022-11-15T09:38:19;1.33;1.33;1.00
46302;PMS7003;32029;51.358;5.628;2022-11-15T09:40:48;1.00;1.00;0.00
46302;PMS7003;32029;51.358;5.628;2022-11-15T09:46:15;0.00;0.00;0.00
46302;PMS7003;32029;51.358;5.628;2022-11-15T09:49:08;1.00;0.00;0.00
46302;PMS7003;32029;51.358;5.628;2022-11-15T09:51:38;1.00;0.00;0.00
46302;PMS7003;32029;51.358;5.628;2022-11-15T10:05:02;1.33;0.00;0.00
46302;PMS7003;32029;51.358;5.628;2022-11-15T10:07:43;0.33;0.33;0.00
46302;PMS7003;32029;51.358;5.628;2022-11-15T10:10:20;1.00;1.00;0.00
46302;PMS7003;32029;51.358;5.628;2022-11-15T10:12:51;0.00;0.00;0.00
46302;PMS7003;32029;51.358;5.628;2022-11-15T10:15:18;0.67;0.67;0.00
46302;PMS7003;32029;51.358;5.628;2022-11-15T10:21:17;0.00;0.00;0.00
46302;PMS7003;32029;51.358;5.628;2022-11-15T10:23:47;0.67;0.00;0.00
46302;PMS7003;32029;51.358;5.628;2022-11-15T10:26:15;0.00;0.00;0.00
46302;PMS7003;32029;51.358;5.628;2022-11-15T10:28:43;0.00;0.00;0.00
46302;PMS7003;32029;51.358;5.628;2022-11-15T10:31:25;2.00;0.00;0.00
46302;PMS7003;32029;51.358;5.628;2022-11-15T10:34:13;0.00;0.00;0.00
46302;PMS7003;32029;51.358;5.628;2022-11-15T10:36:47;0.00;0.00;0.00
46302;PMS7003;32029;51.358;5.628;2022-11-15T10:39:24;1.00;1.00;0.00
46302;PMS7003;32029;51.358;5.628;2022-11-15T10:41:51;2.00;0.67;0.00
46302;PMS7003;32029;51.358;5.628;2022-11-15T10:49:28;2.33;1.00;1.00
46302;PMS7003;32029;51.358;5.628;2022-11-15T10:52:00;1.00;1.00;0.67
46302;PMS7003;32029;51.358;5.628;2022-11-15T10:54:42;0.33;0.00;0.00
46302;PMS7003;32029;51.358;5.628;2022-11-15T10:57:14;0.00;0.00;0.00
46302;PMS7003;32029;51.358;5.628;2022-11-15T10:59:48;0.00;0.00;0.00
46302;PMS7003;32029;51.358;5.628;2022-11-15T11:05:46;0.00;0.00;0.00
46302;PMS7003;32029;51.358;5.628;2022-11-15T11:07:59;0.00;0.00;0.00
46302;PMS7003;32029;51.358;5.628;2022-11-15T11:10:29;0.00;0.00;0.00
46302;PMS7003;32029;51.358;5.628;2022-11-15T11:13:04;1.00;1.00;0.00
46302;PMS7003;32029;51.358;5.628;2022-11-15T11:15:39;0.00;0.00;0.00
46302;PMS7003;32029;51.358;5.628;2022-11-15T11:18:30;0.00;0.00;0.00
46302;PMS7003;32029;51.358;5.628;2022-11-15T11:21:05;0.00;0.00;0.00
46302;PMS7003;32029;51.358;5.628;2022-11-15T11:32:39;0.00;0.00;0.00
46302;PMS7003;32029;51.358;5.628;2022-11-15T11:35:32;0.00;0.00;0.00
46302;PMS7003;32029;51.358;5.628;2022-11-15T11:38:24;0.00;0.00;0.00
46302;PMS7003;32029;51.358;5.628;2022-11-15T11:41:39;0.00;0.00;0.00
46302;PMS7003;32029;51.358;5.628;2022-11-15T11:44:28;2.00;0.00;0.00
46302;PMS7003;32029;51.358;5.628;2022-11-15T11:47:09;0.00;0.00;0.00
46302;PMS7003;32029;51.358;5.628;2022-11-15T11:52:18;0.00;0.00;0.00
46302;PMS7003;32029;51.358;5.628;2022-11-15T11:54:59;0.00;0.00;0.00
46302;PMS7003;32029;51.358;5.628;2022-11-15T11:57:48;1.00;0.00;0.00
46302;PMS7003;32029;51.358;5.628;2022-11-15T12:00:36;0.00;0.00;0.00
46302;PMS7003;32029;51.358;5.628;2022-11-15T12:05:38;1.00;0.00;0.00
46302;PMS7003;32029;51.358;5.628;2022-11-15T12:10:58;0.00;0.00;0.00
46302;PMS7003;32029;51.358;5.628;2022-11-15T12:13:31;1.00;0.00;0.00
46302;PMS7003;32029;51.358;5.628;2022-11-15T12:16:05;0.00;0.00;0.00
46302;PMS7003;32029;51.358;5.628;2022-11-15T12:18:37;0.00;0.00;0.00
46302;PMS7003;32029;51.358;5.628;2022-11-15T12:21:06;0.00;0.00;0.00
46302;PMS7003;32029;51.358;5.628;2022-11-15T12:23:43;0.00;0.00;0.00
46302;PMS7003;32029;51.358;5.628;2022-11-15T12:26:17;0.00;0.00;0.00
46302;PMS7003;32029;51.358;5.628;2022-11-15T12:28:50;0.00;0.00;0.00
46302;PMS7003;32029;51.358;5.628;2022-11-15T12:31:26;0.00;0.00;0.00
46302;PMS7003;32029;51.358;5.628;2022-11-15T12:36:49;0.00;0.00;0.00
46302;PMS7003;32029;51.358;5.628;2022-11-15T12:39:17;0.00;0.00;0.00
46302;PMS7003;32029;51.358;5.628;2022-11-15T12:52:03;0.00;0.00;0.00
46302;PMS7003;32029;51.358;5.628;2022-11-15T13:02:42;0.00;0.00;0.00
46302;PMS7003;32029;51.358;5.628;2022-11-15T13:17:45;0.00;0.00;0.00
46302;PMS7003;32029;51.358;5.628;2022-11-15T13:33:26;1.00;0.00;0.00
46302;PMS7003;32029;51.358;5.628;2022-11-15T13:36:06;0.00;0.00;0.00
46302;PMS7003;32029;51.358;5.628;2022-11-15T13:38:40;0.00;0.00;0.00
46302;PMS7003;32029;51.358;5.628;2022-11-15T13:41:16;1.00;0.00;0.00
46302;PMS7003;32029;51.358;5.628;2022-11-15T13:43:46;0.00;0.00;0.00
46302;PMS7003;32029;51.358;5.628;2022-11-15T13:46:30;1.00;0.00;0.00
46302;PMS7003;32029;51.358;5.628;2022-11-15T13:49:03;0.00;0.00;0.00
46302;PMS7003;32029;51.358;5.628;2022-11-15T13:51:33;0.67;0.00;0.00
46302;PMS7003;32029;51.358;5.628;2022-11-15T13:54:08;0.00;0.00;0.00
46302;PMS7003;32029;51.358;5.628;2022-11-15T13:56:56;0.00;0.00;0.00
46302;PMS7003;32029;51.358;5.628;2022-11-15T13:59:25;0.00;0.00;0.00
46302;PMS7003;32029;51.358;5.628;2022-11-15T14:01:54;1.00;0.00;0.00
46302;PMS7003;32029;51.358;5.628;2022-11-15T14:04:23;0.00;0.00;0.00
46302;PMS7003;32029;51.358;5.628;2022-11-15T14:06:54;0.00;0.00;0.00
46302;PMS7003;32029;51.358;5.628;2022-11-15T14:09:25;0.00;0.00;0.00
46302;PMS7003;32029;51.358;5.628;2022-11-15T14:12:00;1.00;0.00;0.00
46302;PMS7003;32029;51.358;5.628;2022-11-15T14:14:29;2.00;0.00;0.00
46302;PMS7003;32029;51.358;5.628;2022-11-15T14:16:57;0.00;0.00;0.00
46302;PMS7003;32029;51.358;5.628;2022-11-15T14:24:47;0.00;0.00;0.00
46302;PMS7003;32029;51.358;5.628;2022-11-15T14:27:32;1.00;0.00;0.00
46302;PMS7003;32029;51.358;5.628;2022-11-15T14:29:59;0.00;0.00;0.00
46302;PMS7003;32029;51.358;5.628;2022-11-15T14:32:30;3.00;0.00;0.00
46302;PMS7003;32029;51.358;5.628;2022-11-15T14:35:16;0.00;0.00;0.00
46302;PMS7003;32029;51.358;5.628;2022-11-15T14:37:45;0.00;0.00;0.00
46302;PMS7003;32029;51.358;5.628;2022-11-15T14:40:16;1.00;0.00;0.00
46302;PMS7003;32029;51.358;5.628;2022-11-15T14:42:47;1.00;1.00;0.00
46302;PMS7003;32029;51.358;5.628;2022-11-15T14:45:16;2.00;1.00;0.67
46302;PMS7003;32029;51.358;5.628;2022-11-15T14:47:45;0.00;0.00;0.00
46302;PMS7003;32029;51.358;5.628;2022-11-15T14:50:13;0.00;0.00;0.00
46302;PMS7003;32029;51.358;5.628;2022-11-15T14:52:42;0.33;0.33;0.33
46302;PMS7003;32029;51.358;5.628;2022-11-15T14:55:20;1.33;0.33;0.00
46302;PMS7003;32029;51.358;5.628;2022-11-15T14:57:49;0.00;0.00;0.00
46302;PMS7003;32029;51.358;5.628;2022-11-15T15:00:16;1.00;1.00;0.67
46302;PMS7003;32029;51.358;5.628;2022-11-15T15:02:44;0.00;0.00;0.00
46302;PMS7003;32029;51.358;5.628;2022-11-15T15:07:58;1.00;1.00;1.00
46302;PMS7003;32029;51.358;5.628;2022-11-15T15:10:27;0.00;0.00;0.00
46302;PMS7003;32029;51.358;5.628;2022-11-15T15:12:58;1.67;0.00;0.00
46302;PMS7003;32029;51.358;5.628;2022-11-15T15:15:26;1.67;0.00;0.00
46302;PMS7003;32029;51.358;5.628;2022-11-15T15:17:57;0.00;0.00;0.00
46302;PMS7003;32029;51.358;5.628;2022-11-15T15:20:24;0.00;0.00;0.00
46302;PMS7003;32029;51.358;5.628;2022-11-15T15:22:50;1.00;1.00;0.00
46302;PMS7003;32029;51.358;5.628;2022-11-15T15:27:48;0.33;0.33;0.00
46302;PMS7003;32029;51.358;5.628;2022-11-15T15:30:16;0.00;0.00;0.00
46302;PMS7003;32029;51.358;5.628;2022-11-15T15:32:42;0.00;0.00;0.00
46302;PMS7003;32029;51.358;5.628;2022-11-15T15:35:11;1.00;1.00;1.00
46302;PMS7003;32029;51.358;5.628;2022-11-15T15:37:39;0.67;0.00;0.00
46302;PMS7003;32029;51.358;5.628;2022-11-15T15:40:16;1.33;0.00;0.00
46302;PMS7003;32029;51.358;5.628;2022-11-15T15:42:44;1.00;1.00;0.00
46302;PMS7003;32029;51.358;5.628;2022-11-15T15:45:11;0.00;0.00;0.00
46302;PMS7003;32029;51.358;5.628;2022-11-15T15:47:38;0.33;0.33;0.00
46302;PMS7003;32029;51.358;5.628;2022-11-15T15:50:12;2.33;1.00;1.00
46302;PMS7003;32029;51.358;5.628;2022-11-15T15:52:47;1.00;1.00;1.00
46302;PMS7003;32029;51.358;5.628;2022-11-15T15:55:13;1.00;1.00;1.00
46302;PMS7003;32029;51.358;5.628;2022-11-15T15:57:40;0.33;0.33;0.00
46302;PMS7003;32029;51.358;5.628;2022-11-15T16:00:07;1.33;1.00;1.00
46302;PMS7003;32029;51.358;5.628;2022-11-15T16:02:35;0.00;0.00;0.00
46302;PMS7003;32029;51.358;5.628;2022-11-15T16:05:01;2.67;1.00;1.00
46302;PMS7003;32029;51.358;5.628;2022-11-15T16:07:28;1.00;1.00;1.00
46302;PMS7003;32029;51.358;5.628;2022-11-15T16:09:55;0.00;0.00;0.00
46302;PMS7003;32029;51.358;5.628;2022-11-15T16:12:29;1.00;1.00;0.67
46302;PMS7003;32029;51.358;5.628;2022-11-15T16:14:58;0.00;0.00;0.00
46302;PMS7003;32029;51.358;5.628;2022-11-15T16:17:25;1.00;1.00;1.00
46302;PMS7003;32029;51.358;5.628;2022-11-15T16:19:54;1.00;1.00;0.00
46302;PMS7003;32029;51.358;5.628;2022-11-15T16:22:21;2.00;1.00;1.00
46302;PMS7003;32029;51.358;5.628;2022-11-15T16:24:48;0.67;0.67;0.33
46302;PMS7003;32029;51.358;5.628;2022-11-15T16:27:15;3.33;1.00;1.00
46302;PMS7003;32029;51.358;5.628;2022-11-15T16:29:44;1.33;1.00;1.00
46302;PMS7003;32029;51.358;5.628;2022-11-15T16:32:11;0.00;0.00;0.00
46302;PMS7003;32029;51.358;5.628;2022-11-15T16:34:39;1.00;1.00;1.00